createdAt,value
2023-03-05T00:00:01.279Z,44.0
2023-03-05T00:05:01.235Z,44.1
2023-03-05T00:10:01.602Z,44.0
2023-03-05T00:15:01.978Z,44.0
2023-03-05T00:20:02.675Z,44.0
2023-03-05T00:25:01.125Z,44.0
2023-03-05T00:35:02.473Z,44.0
2023-03-05T00:40:01.540Z,44.0
2023-03-05T00:45:01.083Z,44.0
2023-03-05T00:55:01.157Z,44.0
2023-03-05T01:00:01.629Z,43.9
2023-03-05T01:05:01.739Z,43.9
2023-03-05T01:15:01.927Z,43.8
2023-03-05T01:20:00.276Z,43.8
2023-03-05T01:25:01.293Z,43.8
2023-03-05T01:35:01.017Z,43.8
2023-03-05T01:40:01.578Z,43.7
2023-03-05T01:45:01.566Z,43.7
2023-03-05T01:50:01.903Z,43.7
2023-03-05T01:55:01.907Z,43.6
2023-03-05T02:00:01.503Z,43.7
2023-03-05T02:05:00.224Z,43.6
2023-03-05T02:10:01.350Z,43.4
2023-03-05T02:15:01.958Z,43.5
2023-03-05T02:20:01.294Z,43.3
2023-03-05T02:25:02.448Z,43.5
2023-03-05T02:30:01.625Z,39.9
2023-03-05T02:35:01.323Z,39.8
2023-03-05T02:45:01.965Z,41.2
2023-03-05T02:50:02.270Z,41.4
2023-03-05T02:55:02.312Z,41.4
2023-03-05T03:05:01.313Z,42.0
2023-03-05T03:15:01.379Z,42.1
2023-03-05T03:20:01.613Z,42.2
2023-03-05T03:25:01.875Z,42.2
2023-03-05T03:30:01.374Z,42.3
2023-03-05T03:35:01.019Z,42.3
2023-03-05T03:40:01.187Z,42.3
2023-03-05T03:45:01.294Z,42.3
2023-03-05T03:50:01.622Z,42.4
2023-03-05T03:55:01.922Z,42.4
2023-03-05T04:00:01.670Z,42.4
2023-03-05T04:05:01.292Z,42.5
2023-03-05T04:10:01.931Z,42.4
2023-03-05T04:15:01.314Z,42.5
2023-03-05T04:20:01.648Z,42.6
2023-03-05T04:25:01.057Z,42.6
2023-03-05T04:30:01.778Z,42.7
2023-03-05T04:35:01.207Z,42.7
2023-03-05T04:40:00.214Z,42.8
2023-03-05T04:45:01.987Z,42.8
2023-03-05T04:50:01.289Z,42.8
2023-03-05T04:55:01.972Z,42.8
2023-03-05T05:00:03.117Z,42.9
2023-03-05T05:05:01.057Z,42.9
2023-03-05T05:10:02.317Z,42.9
2023-03-05T05:15:01.893Z,42.9
2023-03-05T05:20:00.260Z,42.9
2023-03-05T05:25:00.205Z,43.0
2023-03-05T05:30:01.553Z,43.0
2023-03-05T05:35:01.902Z,43.0
2023-03-05T05:40:01.060Z,43.0
2023-03-05T05:45:01.531Z,43.1
2023-03-05T05:50:01.366Z,43.2
2023-03-05T05:55:01.964Z,43.1
2023-03-05T06:05:00.219Z,43.2
2023-03-05T06:10:01.956Z,43.2
2023-03-05T06:15:01.314Z,43.3
2023-03-05T06:20:00.224Z,43.3
2023-03-05T06:25:01.112Z,43.4
2023-03-05T06:30:02.358Z,43.4
2023-03-05T06:35:01.043Z,43.5
2023-03-05T06:40:02.299Z,43.5
2023-03-05T06:45:00.250Z,43.6
2023-03-05T06:50:01.579Z,43.5
2023-03-05T06:55:01.586Z,43.6
2023-03-05T07:00:01.073Z,43.6
2023-03-05T07:05:01.115Z,43.6
2023-03-05T07:10:01.359Z,43.6
2023-03-05T07:15:00.199Z,43.7
2023-03-05T07:25:02.102Z,43.7
2023-03-05T07:30:01.534Z,43.7
2023-03-05T07:35:00.849Z,43.7
2023-03-05T07:40:00.208Z,43.7
2023-03-05T07:45:01.613Z,43.8
2023-03-05T07:50:00.987Z,43.8
2023-03-05T07:55:01.131Z,43.9
2023-03-05T08:05:01.303Z,44.0
2023-03-05T08:10:01.338Z,44.0
2023-03-05T08:15:00.908Z,44.0
2023-03-05T08:25:00.903Z,44.2
2023-03-05T08:30:00.847Z,44.2
2023-03-05T08:35:01.103Z,44.3
2023-03-05T08:40:00.189Z,44.3
2023-03-05T08:45:03.031Z,44.4
2023-03-05T08:50:01.290Z,44.4
2023-03-05T08:55:01.323Z,44.3
2023-03-05T09:00:00.936Z,44.4
2023-03-05T09:05:00.864Z,44.4
2023-03-05T09:10:01.565Z,44.4
2023-03-05T09:15:01.493Z,44.4
2023-03-05T09:20:02.005Z,44.5
2023-03-05T09:25:02.995Z,44.3
2023-03-05T09:30:01.433Z,44.3
2023-03-05T09:35:00.978Z,44.3
2023-03-05T09:45:01.849Z,44.3
2023-03-05T09:50:01.150Z,44.3
2023-03-05T09:55:00.960Z,44.2
2023-03-05T10:00:00.212Z,44.2
2023-03-05T10:05:02.895Z,44.2
2023-03-05T10:10:00.322Z,44.1
2023-03-05T10:15:00.900Z,44.3
2023-03-05T10:20:01.397Z,44.5
2023-03-05T10:25:01.296Z,44.8
2023-03-05T10:30:00.275Z,44.7
2023-03-05T10:35:01.567Z,44.8
2023-03-05T10:40:01.942Z,44.7
2023-03-05T10:45:00.226Z,44.7
2023-03-05T10:50:01.609Z,44.7
2023-03-05T10:55:01.982Z,44.6
2023-03-05T11:00:01.204Z,44.6
2023-03-05T11:05:01.182Z,44.6
2023-03-05T11:10:01.594Z,44.6
2023-03-05T11:15:01.970Z,44.5
2023-03-05T11:20:00.898Z,44.4
2023-03-05T11:25:01.103Z,44.4
2023-03-05T11:30:01.127Z,44.3
2023-03-05T11:35:01.775Z,44.3
2023-03-05T11:40:02.156Z,44.2
2023-03-05T11:45:01.617Z,44.1
2023-03-05T11:50:00.174Z,44.0
2023-03-05T11:55:01.347Z,44.0
2023-03-05T12:00:00.203Z,44.0
2023-03-05T12:05:01.059Z,43.9
2023-03-05T12:10:01.123Z,43.8
2023-03-05T12:15:01.464Z,43.9
2023-03-05T12:20:02.166Z,43.9
2023-03-05T12:25:01.326Z,43.8
2023-03-05T12:30:01.973Z,43.8
2023-03-05T12:35:01.960Z,43.8
2023-03-05T12:45:01.691Z,43.8
2023-03-05T12:50:01.161Z,43.7
2023-03-05T12:55:01.078Z,43.7
2023-03-05T13:05:01.985Z,43.6
2023-03-05T13:10:02.419Z,43.6
2023-03-05T13:15:01.523Z,43.5
2023-03-05T13:25:01.948Z,43.5
2023-03-05T13:30:01.234Z,43.4
2023-03-05T13:35:01.604Z,43.4
2023-03-05T13:40:01.555Z,43.4
2023-03-05T13:45:01.604Z,43.4
2023-03-05T13:50:02.229Z,43.3
2023-03-05T13:55:02.023Z,43.4
2023-03-05T14:05:01.351Z,43.2
2023-03-05T14:10:01.123Z,43.3
2023-03-05T14:15:02.872Z,43.3
2023-03-05T14:20:01.052Z,43.3
2023-03-05T14:25:01.397Z,43.2
2023-03-05T14:30:01.489Z,43.2
2023-03-05T14:35:01.107Z,43.2
2023-03-05T14:40:02.091Z,43.2
2023-03-05T14:45:01.130Z,43.2
2023-03-05T14:50:01.124Z,43.3
2023-03-05T14:55:01.112Z,43.2
2023-03-05T15:00:01.092Z,43.3
2023-03-05T15:05:01.328Z,43.7
2023-03-05T15:10:01.597Z,40.7
2023-03-05T15:15:01.938Z,39.0
2023-03-05T15:20:01.107Z,38.0
2023-03-05T15:25:00.237Z,37.1
2023-03-05T15:35:01.576Z,39.0
2023-03-05T15:40:01.357Z,40.0
2023-03-05T15:45:00.261Z,40.6
2023-03-05T15:50:01.292Z,40.9
2023-03-05T15:55:01.713Z,41.1
2023-03-05T16:05:03.765Z,41.8
2023-03-05T16:10:01.943Z,42.1
2023-03-05T16:15:01.949Z,42.4
2023-03-05T16:20:01.090Z,42.8
2023-03-05T16:25:02.636Z,43.0
2023-03-05T16:30:02.811Z,43.0
2023-03-05T16:35:01.943Z,43.2
2023-03-05T16:45:00.202Z,43.5
2023-03-05T16:50:00.220Z,43.7
2023-03-05T16:55:01.960Z,43.7
2023-03-05T17:00:02.311Z,43.6
2023-03-05T17:05:01.577Z,43.7
2023-03-05T17:15:01.153Z,44.4
2023-03-05T17:20:01.248Z,44.6
2023-03-05T17:25:01.620Z,44.8
2023-03-05T17:30:02.487Z,45.0
2023-03-05T17:35:05.598Z,45.1
2023-03-05T17:40:01.512Z,45.3
2023-03-05T17:45:01.471Z,45.4
2023-03-05T17:50:02.053Z,42.2
2023-03-05T17:55:01.947Z,43.5
2023-03-05T18:00:02.034Z,44.3
2023-03-05T18:05:04.291Z,44.4
2023-03-05T18:15:01.933Z,44.5
2023-03-05T18:20:04.278Z,44.7
2023-03-05T18:25:01.306Z,44.7
2023-03-05T18:30:01.358Z,44.9
2023-03-05T18:35:01.482Z,45.2
2023-03-05T18:40:01.815Z,45.2
2023-03-05T18:45:01.609Z,45.2
2023-03-05T18:55:01.006Z,45.2
2023-03-05T19:00:02.565Z,45.1
2023-03-05T19:05:01.316Z,45.3
2023-03-05T19:10:02.759Z,45.3
2023-03-05T19:15:02.048Z,45.4
2023-03-05T19:20:02.827Z,45.4
2023-03-05T19:25:01.151Z,45.5
2023-03-05T19:35:01.927Z,45.6
2023-03-05T19:40:02.176Z,45.5
2023-03-05T19:45:01.106Z,45.6
2023-03-05T19:55:01.332Z,40.8
2023-03-05T20:00:02.304Z,39.0
2023-03-05T20:05:01.986Z,39.7
2023-03-05T20:10:01.495Z,40.9
2023-03-05T20:15:01.112Z,41.6
2023-03-05T20:20:03.196Z,42.1
2023-03-05T20:25:01.637Z,42.4
2023-03-05T20:30:03.096Z,42.7
2023-03-05T20:35:01.589Z,42.7
2023-03-05T20:40:02.547Z,42.8
2023-03-05T20:45:01.175Z,42.9
2023-03-05T20:50:01.637Z,43.1
2023-03-05T20:55:01.956Z,43.2
2023-03-05T21:00:02.708Z,43.3
2023-03-05T21:05:01.393Z,43.4
2023-03-05T21:10:02.506Z,43.4
2023-03-05T21:15:02.827Z,43.5
2023-03-05T21:20:02.615Z,43.5
2023-03-05T21:25:00.217Z,43.5
2023-03-05T21:30:04.081Z,43.6
2023-03-05T21:35:01.300Z,43.6
2023-03-05T21:40:01.083Z,43.6
2023-03-05T21:45:01.333Z,43.7
2023-03-05T21:50:00.272Z,43.8
2023-03-05T21:55:02.261Z,43.6
2023-03-05T22:00:01.324Z,43.6
2023-03-05T22:05:01.891Z,43.6
2023-03-05T22:15:01.581Z,43.7
2023-03-05T22:20:01.603Z,43.8
2023-03-05T22:25:01.314Z,43.9
2023-03-05T22:30:01.640Z,44.0
2023-03-05T22:35:00.201Z,44.1
2023-03-05T22:40:01.468Z,44.3
2023-03-05T22:45:01.600Z,44.3
2023-03-05T22:55:00.200Z,44.4
2023-03-05T23:00:01.491Z,44.4
2023-03-05T23:05:01.130Z,44.4
2023-03-05T23:10:00.259Z,44.3
2023-03-05T23:15:01.312Z,44.3
2023-03-05T23:20:01.293Z,44.3
2023-03-05T23:25:01.362Z,44.3
2023-03-05T23:30:01.592Z,43.2
2023-03-05T23:35:01.608Z,41.9
2023-03-05T23:40:01.124Z,42.1
2023-03-05T23:45:01.724Z,42.4
2023-03-05T23:55:01.853Z,42.5
